Rosiori de Vede, Romania
Current Conditions -  °F | °C
As of 3:00 AM on Sunday 23 Nov 2014 (Local Time) from LRCV Reporting Station
Overcast Overcast  
Wind Chill: 39°   Ceiling: 3000
Heat Index: 39°   Visibility: 4mi
Dew Point: 36°   Wind: 2mph
Humidity: 87%   Direction: NA
Pressure: 30.33"   Gusts: NA
Location:  44.12°N, 25°E
Report Text: LRCV 230000Z VRB02KT 7000 OVC030 04/02 Q1027
Loading
Personal Weather Stations






























Interactive Weather Map New forecast layout! Learn more

10-Day Weather Forecast

Advertisements
Track Severe Weather on mobile